createdAt,value
2018-03-21T00:00:28.848Z,2.70
2018-03-21T00:02:57.118Z,2.97
2018-03-21T00:05:25.383Z,2.23
2018-03-21T00:07:53.774Z,2.60
2018-03-21T00:10:22.093Z,2.00
2018-03-21T00:12:50.359Z,2.20
2018-03-21T00:15:19.498Z,2.20
2018-03-21T00:17:47.731Z,2.70
2018-03-21T00:20:15.994Z,2.07
2018-03-21T00:22:44.322Z,2.10
2018-03-21T00:25:12.573Z,2.50
2018-03-21T00:27:40.851Z,1.93
2018-03-21T00:30:09.108Z,2.27
2018-03-21T00:32:37.333Z,1.87
2018-03-21T00:35:06.359Z,1.97
2018-03-21T00:37:34.800Z,1.90
2018-03-21T00:40:03.043Z,1.80
2018-03-21T00:42:31.302Z,2.73
2018-03-21T00:44:59.584Z,2.60
2018-03-21T00:47:28.588Z,1.90
2018-03-21T00:49:57.002Z,2.50
2018-03-21T00:52:25.277Z,1.93
2018-03-21T00:54:53.488Z,2.20
2018-03-21T00:57:21.758Z,3.23
2018-03-21T00:59:50.010Z,2.80
2018-03-21T01:02:18.279Z,2.37
2018-03-21T01:04:46.504Z,2.23
2018-03-21T01:07:14.894Z,2.67
2018-03-21T01:09:43.211Z,2.30
2018-03-21T01:12:12.233Z,2.50
2018-03-21T01:14:41.265Z,2.63
2018-03-21T01:17:10.142Z,3.07
2018-03-21T01:19:39.187Z,2.60
2018-03-21T01:22:07.434Z,2.43
2018-03-21T01:24:35.680Z,2.50
2018-03-21T01:27:04.221Z,2.53
2018-03-21T01:29:32.437Z,2.37
2018-03-21T01:32:01.469Z,2.00
2018-03-21T01:34:29.872Z,2.17
2018-03-21T01:36:58.365Z,2.53
2018-03-21T01:39:26.632Z,2.60
2018-03-21T01:41:54.900Z,2.00
2018-03-21T01:44:23.177Z,2.37
2018-03-21T01:46:51.471Z,2.43
2018-03-21T01:49:19.996Z,2.57
2018-03-21T01:51:48.274Z,2.10
2018-03-21T01:54:17.195Z,2.23
2018-03-21T01:56:46.341Z,2.20
2018-03-21T01:59:14.581Z,2.37
2018-03-21T02:01:42.850Z,1.93
2018-03-21T02:04:11.614Z,2.80
2018-03-21T02:06:39.858Z,2.20
2018-03-21T02:09:08.926Z,2.80
2018-03-21T02:11:37.930Z,2.50
2018-03-21T02:14:06.242Z,2.10
2018-03-21T02:16:34.525Z,2.60
2018-03-21T02:19:02.761Z,2.20
2018-03-21T02:21:31.090Z,2.03
2018-03-21T02:23:59.478Z,1.97
2018-03-21T02:26:27.717Z,2.20
2018-03-21T02:28:55.941Z,2.30
2018-03-21T02:31:24.524Z,2.13
2018-03-21T02:33:54.176Z,2.47
2018-03-21T02:36:22.408Z,1.90
2018-03-21T02:38:50.667Z,2.27
2018-03-21T02:41:18.931Z,2.30
2018-03-21T02:43:47.188Z,2.37
2018-03-21T02:46:15.456Z,1.80
2018-03-21T02:48:43.707Z,2.40
2018-03-21T02:51:11.977Z,1.97
2018-03-21T02:53:40.217Z,1.80
2018-03-21T02:56:08.520Z,2.20
2018-03-21T02:58:36.749Z,2.13
2018-03-21T03:01:05.046Z,2.07
2018-03-21T03:03:33.346Z,2.13
2018-03-21T03:06:01.621Z,2.30
2018-03-21T03:08:29.913Z,2.13
2018-03-21T03:10:58.174Z,2.73
2018-03-21T03:13:26.458Z,1.70
2018-03-21T03:15:54.696Z,2.30
2018-03-21T03:18:22.957Z,2.00
2018-03-21T03:20:51.317Z,2.50
2018-03-21T03:23:19.580Z,2.53
2018-03-21T03:25:47.860Z,2.17
2018-03-21T03:28:16.110Z,1.80
2018-03-21T03:30:44.363Z,2.93
2018-03-21T03:33:12.631Z,2.00
2018-03-21T03:35:44.828Z,2.50
2018-03-21T03:38:13.464Z,2.07
2018-03-21T03:40:41.700Z,2.20
2018-03-21T03:43:10.689Z,1.80
2018-03-21T03:45:39.578Z,1.90
2018-03-21T03:48:08.521Z,2.37
2018-03-21T03:50:36.756Z,2.67
2018-03-21T03:53:05.021Z,2.20
2018-03-21T03:55:34.929Z,2.50
2018-03-21T03:58:03.168Z,2.00
2018-03-21T04:00:31.419Z,2.97
2018-03-21T04:02:59.694Z,1.87
2018-03-21T04:05:27.937Z,2.47
2018-03-21T04:07:56.185Z,1.70
2018-03-21T04:10:24.427Z,2.77
2018-03-21T04:12:52.662Z,2.87
2018-03-21T04:15:21.075Z,2.50
2018-03-21T04:17:50.034Z,2.23
2018-03-21T04:20:19.041Z,2.70
2018-03-21T04:22:47.318Z,2.40
2018-03-21T04:25:16.321Z,1.93
2018-03-21T04:27:45.309Z,2.20
2018-03-21T04:30:14.334Z,2.97
2018-03-21T04:32:42.628Z,2.33
2018-03-21T04:35:10.889Z,2.53
2018-03-21T04:37:40.765Z,2.13
2018-03-21T04:40:09.341Z,2.47
2018-03-21T04:42:37.571Z,2.90
2018-03-21T04:45:05.875Z,2.20
2018-03-21T04:47:34.102Z,2.60
2018-03-21T04:50:02.357Z,2.33
2018-03-21T04:52:30.661Z,2.10
2018-03-21T04:54:58.990Z,2.40
2018-03-21T04:57:27.205Z,2.63
2018-03-21T04:59:55.541Z,1.87
2018-03-21T05:02:23.775Z,2.90
2018-03-21T05:04:52.021Z,3.33
2018-03-21T05:07:21.041Z,2.53
2018-03-21T05:09:49.282Z,2.73
2018-03-21T05:12:17.513Z,2.83
2018-03-21T05:14:45.778Z,2.40
2018-03-21T05:17:14.002Z,2.27
2018-03-21T05:19:43.050Z,3.33
2018-03-21T05:22:11.470Z,3.97
2018-03-21T05:24:41.085Z,3.47
2018-03-21T05:27:10.082Z,3.73
2018-03-21T05:29:38.315Z,2.97
2018-03-21T05:32:06.594Z,3.43
2018-03-21T05:34:34.890Z,4.03
2018-03-21T05:37:03.113Z,3.87
2018-03-21T05:39:31.370Z,3.27
2018-03-21T05:41:59.740Z,2.80
2018-03-21T05:44:28.025Z,3.27
2018-03-21T05:46:56.969Z,3.80
2018-03-21T05:49:25.205Z,3.13
2018-03-21T05:51:53.475Z,3.23
2018-03-21T05:54:21.717Z,3.27
2018-03-21T05:56:50.025Z,3.30
2018-03-21T05:59:18.237Z,3.30
2018-03-21T06:01:46.687Z,3.67
2018-03-21T06:04:14.931Z,5.10
2018-03-21T06:06:43.969Z,2.90
2018-03-21T06:09:12.405Z,3.50
2018-03-21T06:11:40.689Z,3.70
2018-03-21T06:14:09.694Z,3.53
2018-03-21T06:16:38.297Z,3.13
2018-03-21T06:19:06.532Z,3.20
2018-03-21T06:21:34.750Z,3.10
2018-03-21T06:24:03.029Z,5.30
2018-03-21T06:26:31.261Z,4.37
2018-03-21T06:28:59.510Z,3.77
2018-03-21T06:31:27.823Z,3.50
2018-03-21T06:33:56.050Z,4.03
2018-03-21T06:36:24.513Z,4.20
2018-03-21T06:38:53.047Z,4.57
2018-03-21T06:41:21.291Z,4.00
2018-03-21T06:43:49.530Z,3.80
2018-03-21T06:46:17.922Z,3.97
2018-03-21T06:48:46.261Z,3.60
2018-03-21T06:51:14.586Z,4.60
2018-03-21T06:53:42.846Z,4.10
2018-03-21T06:56:11.365Z,4.77
2018-03-21T06:58:39.615Z,4.60
2018-03-21T07:01:07.873Z,4.37
2018-03-21T07:03:36.133Z,5.30
2018-03-21T07:06:05.144Z,4.83
2018-03-21T07:08:33.390Z,4.70
2018-03-21T07:11:01.612Z,6.27
2018-03-21T07:16:51.327Z,7.50
2018-03-21T07:19:19.556Z,7.17
2018-03-21T07:21:47.900Z,9.23
2018-03-21T07:24:16.107Z,8.60
2018-03-21T07:26:44.420Z,8.13
2018-03-21T07:29:13.588Z,6.77
2018-03-21T07:31:41.843Z,7.20
2018-03-21T07:34:10.120Z,8.33
2018-03-21T07:36:38.697Z,9.90
2018-03-21T07:39:06.966Z,9.97
2018-03-21T07:41:35.314Z,13.27
2018-03-21T07:44:03.668Z,13.33
2018-03-21T07:46:31.923Z,13.70
2018-03-21T07:49:00.846Z,12.47
2018-03-21T07:51:29.106Z,12.93
2018-03-21T07:53:58.441Z,12.97
2018-03-21T07:56:26.713Z,13.63
2018-03-21T07:58:55.958Z,15.93
2018-03-21T08:01:24.182Z,16.33
2018-03-21T08:03:52.501Z,21.90
2018-03-21T08:06:20.733Z,18.97
2018-03-21T08:08:49.020Z,16.87
2018-03-21T08:11:17.299Z,14.43
2018-03-21T08:13:45.710Z,16.93
2018-03-21T08:16:13.953Z,15.87
2018-03-21T08:18:42.204Z,15.27
2018-03-21T08:21:10.449Z,15.80
2018-03-21T08:23:38.726Z,16.60
2018-03-21T08:26:09.236Z,19.27
2018-03-21T08:28:39.053Z,21.70
2018-03-21T08:31:08.093Z,20.63
2018-03-21T08:33:36.345Z,19.37
2018-03-21T08:36:04.803Z,24.13
2018-03-21T08:38:33.234Z,19.40
2018-03-21T08:41:01.472Z,21.07
2018-03-21T08:43:30.536Z,20.03
2018-03-21T08:45:58.746Z,18.23
2018-03-21T08:48:27.113Z,17.37
2018-03-21T08:50:56.307Z,16.80
2018-03-21T08:53:24.673Z,18.80
2018-03-21T08:55:52.962Z,17.07
2018-03-21T08:58:21.176Z,18.47
2018-03-21T09:00:49.463Z,19.60
2018-03-21T09:03:17.695Z,19.17
2018-03-21T09:05:46.173Z,19.77
2018-03-21T09:08:15.196Z,19.40
2018-03-21T09:10:43.458Z,17.73
2018-03-21T09:13:12.477Z,17.77
2018-03-21T09:15:40.709Z,15.70
2018-03-21T09:18:08.958Z,17.50
2018-03-21T09:20:37.291Z,16.70
2018-03-21T09:23:05.485Z,18.57
2018-03-21T09:25:33.741Z,13.83
2018-03-21T09:28:02.016Z,15.93
2018-03-21T09:30:31.058Z,14.40
2018-03-21T09:33:00.131Z,14.93
2018-03-21T09:35:28.518Z,16.20
2018-03-21T09:37:56.830Z,18.27
2018-03-21T09:40:25.188Z,16.60
2018-03-21T09:42:53.483Z,18.77
2018-03-21T09:45:21.733Z,19.20
2018-03-21T09:47:50.157Z,18.60
2018-03-21T09:50:19.386Z,18.00
2018-03-21T09:52:47.693Z,20.53
2018-03-21T09:55:16.216Z,19.33
2018-03-21T09:57:44.474Z,20.70
2018-03-21T10:00:12.969Z,20.80
2018-03-21T10:02:41.188Z,22.90
2018-03-21T10:05:09.458Z,24.33
2018-03-21T10:07:38.564Z,19.73
2018-03-21T10:10:09.202Z,21.03
2018-03-21T10:12:37.621Z,21.20
2018-03-21T10:15:05.905Z,19.87
2018-03-21T10:17:34.167Z,20.60
2018-03-21T10:20:03.279Z,20.20
2018-03-21T10:22:31.540Z,21.27
2018-03-21T10:25:01.297Z,21.23
2018-03-21T10:27:29.545Z,21.60
2018-03-21T10:29:57.817Z,21.67
2018-03-21T10:32:26.106Z,20.50
2018-03-21T10:34:54.568Z,23.37
2018-03-21T10:37:23.567Z,22.80
2018-03-21T10:39:52.606Z,21.23
2018-03-21T10:42:20.911Z,24.20
2018-03-21T10:44:49.186Z,22.90
2018-03-21T10:47:17.583Z,23.37
2018-03-21T10:49:46.126Z,23.27
2018-03-21T10:52:14.393Z,25.57
2018-03-21T10:54:42.634Z,22.10
2018-03-21T10:57:11.665Z,23.87
2018-03-21T10:59:39.929Z,23.00
2018-03-21T11:02:14.061Z,25.90
2018-03-21T11:04:42.414Z,23.77
2018-03-21T11:07:10.712Z,26.50
2018-03-21T11:09:38.940Z,28.03
2018-03-21T11:12:07.182Z,29.73
2018-03-21T11:14:36.979Z,28.13
2018-03-21T11:17:06.288Z,27.33
2018-03-21T11:19:34.699Z,26.20
2018-03-21T11:22:02.995Z,31.07
2018-03-21T11:24:31.505Z,28.20
2018-03-21T11:27:00.631Z,29.47
2018-03-21T11:29:29.446Z,27.80
2018-03-21T11:31:58.518Z,27.80
2018-03-21T11:34:26.763Z,24.77
2018-03-21T11:36:55.095Z,24.07
2018-03-21T11:39:23.386Z,24.40
2018-03-21T11:41:51.661Z,24.87
2018-03-21T11:44:19.918Z,25.57
2018-03-21T11:46:48.200Z,25.60
2018-03-21T11:49:16.419Z,22.80
2018-03-21T11:51:44.995Z,25.60
2018-03-21T11:54:13.270Z,24.60
2018-03-21T11:56:41.712Z,26.77
2018-03-21T11:59:10.154Z,23.40
2018-03-21T12:01:38.468Z,24.47
2018-03-21T12:04:06.677Z,24.30
2018-03-21T12:06:35.023Z,25.50
2018-03-21T12:09:03.394Z,23.93
2018-03-21T12:11:32.437Z,22.63
2018-03-21T12:14:00.826Z,22.07
2018-03-21T12:16:29.066Z,19.60
2018-03-21T12:18:57.471Z,21.83
2018-03-21T12:21:26.479Z,21.30
2018-03-21T12:23:54.741Z,19.70
2018-03-21T12:26:22.989Z,19.47
2018-03-21T12:28:51.222Z,20.40
2018-03-21T12:31:19.506Z,19.40
2018-03-21T12:33:47.748Z,18.00
2018-03-21T12:36:16.063Z,17.20
2018-03-21T12:38:44.380Z,16.40
2018-03-21T12:41:12.641Z,16.40
2018-03-21T12:43:40.908Z,17.47
2018-03-21T12:46:09.137Z,16.63
2018-03-21T12:48:40.122Z,15.33
2018-03-21T12:51:09.853Z,17.17
2018-03-21T12:53:38.081Z,17.30
2018-03-21T12:56:06.434Z,17.53
2018-03-21T12:58:34.622Z,17.80
2018-03-21T13:01:02.885Z,16.30
2018-03-21T13:03:31.129Z,17.97
2018-03-21T13:06:00.150Z,16.87
2018-03-21T13:08:28.507Z,17.60
2018-03-21T13:10:57.512Z,17.20
2018-03-21T13:13:26.795Z,16.63
2018-03-21T13:15:55.081Z,17.87
2018-03-21T13:18:23.373Z,17.83
2018-03-21T13:20:51.625Z,15.97
2018-03-21T13:23:19.957Z,16.77
2018-03-21T13:25:48.261Z,16.23
2018-03-21T13:28:16.690Z,17.30
2018-03-21T13:30:45.028Z,16.63
2018-03-21T13:33:14.050Z,16.90
2018-03-21T13:35:43.212Z,17.70
2018-03-21T13:38:11.449Z,17.53
2018-03-21T13:40:45.874Z,19.03
2018-03-21T13:43:14.714Z,16.80
2018-03-21T13:45:43.753Z,17.70
2018-03-21T13:48:12.006Z,16.80
2018-03-21T13:50:40.469Z,15.40
2018-03-21T13:53:08.711Z,18.47
2018-03-21T13:55:36.977Z,16.27
2018-03-21T13:58:05.233Z,16.03
2018-03-21T14:00:33.790Z,18.40
2018-03-21T14:03:03.669Z,16.97
2018-03-21T14:05:32.325Z,17.30
2018-03-21T14:08:00.578Z,17.67
2018-03-21T14:10:28.907Z,15.87
2018-03-21T14:12:58.134Z,16.10
2018-03-21T14:15:26.467Z,15.60
2018-03-21T14:17:55.488Z,17.43
2018-03-21T14:20:23.766Z,15.20
2018-03-21T14:22:52.021Z,15.53
2018-03-21T14:25:21.273Z,16.63
2018-03-21T14:27:49.521Z,15.60
2018-03-21T14:30:17.840Z,15.13
2018-03-21T14:32:46.845Z,16.00
2018-03-21T14:35:16.724Z,16.50
2018-03-21T14:37:45.002Z,16.00
2018-03-21T14:40:13.432Z,17.00
2018-03-21T14:42:42.195Z,15.10
2018-03-21T14:45:11.230Z,18.20
2018-03-21T14:47:41.043Z,14.80
2018-03-21T14:50:09.345Z,13.57
2018-03-21T14:52:38.353Z,15.43
2018-03-21T14:55:06.603Z,15.93
2018-03-21T14:57:34.913Z,15.37
2018-03-21T15:00:05.199Z,19.83
2018-03-21T15:02:33.468Z,15.70
2018-03-21T15:05:03.217Z,14.50
2018-03-21T15:07:31.479Z,16.50
2018-03-21T15:09:59.759Z,15.90
2018-03-21T15:12:28.412Z,17.40
2018-03-21T15:14:56.651Z,17.63
2018-03-21T15:17:24.955Z,16.40
2018-03-21T15:19:53.235Z,17.10
2018-03-21T15:22:21.513Z,16.27
2018-03-21T15:24:49.814Z,16.03
2018-03-21T15:27:20.286Z,17.07
2018-03-21T15:29:48.806Z,19.30
2018-03-21T15:32:17.024Z,20.60
2018-03-21T15:34:45.322Z,20.50
2018-03-21T15:37:13.594Z,20.23
2018-03-21T15:39:42.121Z,20.70
2018-03-21T15:42:11.425Z,19.93
2018-03-21T15:44:39.684Z,19.60
2018-03-21T15:47:08.793Z,21.50
2018-03-21T15:49:37.427Z,19.63
2018-03-21T15:52:05.700Z,21.23
2018-03-21T15:54:34.781Z,18.53
2018-03-21T15:57:03.080Z,18.90
2018-03-21T15:59:31.933Z,18.03
2018-03-21T16:02:00.969Z,19.40
2018-03-21T16:04:30.133Z,17.07
2018-03-21T16:06:58.387Z,17.33
2018-03-21T16:09:28.064Z,19.20
2018-03-21T16:11:56.303Z,16.00
2018-03-21T16:14:25.376Z,16.00
2018-03-21T16:16:53.850Z,15.13
2018-03-21T16:19:22.081Z,17.37
2018-03-21T16:21:50.335Z,17.53
2018-03-21T16:24:19.807Z,15.17
2018-03-21T16:26:48.414Z,18.70
2018-03-21T16:29:16.945Z,17.20
2018-03-21T16:31:45.225Z,18.57
2018-03-21T16:34:13.481Z,18.30
2018-03-21T16:36:43.803Z,18.70
2018-03-21T16:39:12.129Z,17.83
2018-03-21T16:41:40.362Z,16.77
2018-03-21T16:44:09.080Z,19.20
2018-03-21T16:46:37.521Z,17.40
2018-03-21T16:49:05.758Z,17.87
2018-03-21T16:51:34.859Z,17.37
2018-03-21T16:54:04.905Z,18.40
2018-03-21T16:56:33.118Z,16.40
2018-03-21T16:59:01.607Z,16.50
2018-03-21T17:01:29.826Z,14.67
2018-03-21T17:03:58.362Z,15.83
2018-03-21T17:06:28.119Z,16.77
2018-03-21T17:08:57.520Z,16.33
2018-03-21T17:11:25.784Z,16.13
2018-03-21T17:13:54.019Z,17.27
2018-03-21T17:16:22.308Z,19.50
2018-03-21T17:18:50.553Z,16.20
2018-03-21T17:21:18.862Z,17.70
2018-03-21T17:23:47.094Z,18.20
2018-03-21T17:26:15.397Z,16.33
2018-03-21T17:28:43.672Z,17.23
2018-03-21T17:31:11.911Z,18.53
2018-03-21T17:33:40.172Z,17.90
2018-03-21T17:36:08.430Z,18.70
2018-03-21T17:38:36.664Z,16.50
2018-03-21T17:41:04.948Z,17.30
2018-03-21T17:43:33.240Z,16.80
2018-03-21T17:46:02.983Z,18.70
2018-03-21T17:48:31.353Z,18.23
2018-03-21T17:51:00.368Z,17.67
2018-03-21T17:53:35.163Z,16.50
2018-03-21T17:56:03.430Z,16.60
2018-03-21T17:58:31.734Z,17.20
2018-03-21T18:00:59.987Z,15.17
2018-03-21T18:03:28.267Z,16.77
2018-03-21T18:05:57.303Z,16.00
2018-03-21T18:08:25.603Z,15.80
2018-03-21T18:10:53.878Z,14.73
2018-03-21T18:13:22.945Z,15.70
2018-03-21T18:15:51.220Z,13.50
2018-03-21T18:18:19.468Z,12.70
2018-03-21T18:20:48.507Z,14.20
2018-03-21T18:23:17.806Z,14.13
2018-03-21T18:25:46.286Z,14.20
2018-03-21T18:28:14.738Z,13.80
2018-03-21T18:30:42.985Z,13.43
2018-03-21T18:33:11.307Z,13.33
2018-03-21T18:35:40.421Z,12.10
2018-03-21T18:38:08.717Z,13.87
2018-03-21T18:40:36.966Z,12.67
2018-03-21T18:43:05.258Z,14.13
2018-03-21T18:45:34.533Z,11.33
2018-03-21T18:48:02.795Z,11.87
2018-03-21T18:50:31.088Z,11.00
2018-03-21T18:52:59.426Z,11.33
2018-03-21T18:55:28.319Z,11.17
2018-03-21T18:57:58.088Z,12.67
2018-03-21T19:00:26.351Z,11.80
2018-03-21T19:02:54.973Z,10.10
2018-03-21T19:05:23.218Z,13.27
2018-03-21T19:07:51.489Z,13.50
2018-03-21T19:10:19.774Z,11.37
2018-03-21T19:12:48.020Z,10.47
2018-03-21T19:15:17.962Z,10.30
2018-03-21T19:17:46.384Z,9.80
2018-03-21T19:20:15.577Z,10.00
2018-03-21T19:22:45.562Z,8.80
2018-03-21T19:25:13.870Z,8.40
2018-03-21T19:27:42.101Z,10.17
2018-03-21T19:30:10.377Z,9.43
2018-03-21T19:32:39.550Z,9.40
2018-03-21T19:35:08.718Z,8.50
2018-03-21T19:37:36.967Z,9.00
2018-03-21T19:40:05.242Z,8.73
2018-03-21T19:42:33.477Z,9.53
2018-03-21T19:45:01.828Z,8.63
2018-03-21T19:47:30.123Z,8.63
2018-03-21T19:49:58.550Z,8.53
2018-03-21T19:52:26.873Z,9.88
2018-03-21T19:54:55.157Z,10.33
2018-03-21T19:57:23.616Z,7.83
2018-03-21T19:59:53.892Z,9.00
2018-03-21T20:02:22.378Z,8.90
2018-03-21T20:04:50.714Z,10.23
2018-03-21T20:07:19.022Z,8.10
2018-03-21T20:09:48.026Z,8.27
2018-03-21T20:12:16.349Z,8.37
2018-03-21T20:14:44.770Z,7.40
2018-03-21T20:17:13.166Z,9.30
2018-03-21T20:19:41.482Z,8.03
2018-03-21T20:22:09.861Z,9.20
2018-03-21T20:24:38.204Z,8.47
2018-03-21T20:27:07.386Z,8.00
2018-03-21T20:29:35.888Z,7.13
2018-03-21T20:32:05.160Z,8.40
2018-03-21T20:34:33.465Z,8.40
2018-03-21T20:37:01.714Z,7.53
2018-03-21T20:39:30.086Z,7.70
2018-03-21T20:41:58.502Z,7.40
2018-03-21T20:44:26.896Z,9.07
2018-03-21T20:46:55.831Z,8.00
2018-03-21T20:49:24.033Z,8.33
2018-03-21T20:51:53.199Z,8.43
2018-03-21T20:54:21.407Z,8.27
2018-03-21T20:56:49.788Z,8.60
2018-03-21T20:59:18.173Z,8.43
2018-03-21T21:01:46.443Z,8.37
2018-03-21T21:04:14.711Z,9.73
2018-03-21T21:06:43.058Z,8.47
2018-03-21T21:09:12.827Z,8.27
2018-03-21T21:11:41.067Z,8.80
2018-03-21T21:14:09.668Z,9.00
2018-03-21T21:16:37.921Z,8.37
2018-03-21T21:19:06.161Z,8.47
2018-03-21T21:21:34.544Z,8.97
2018-03-21T21:24:03.543Z,9.03
2018-03-21T21:26:32.581Z,9.23
2018-03-21T21:29:00.833Z,8.80
2018-03-21T21:31:29.122Z,9.63
2018-03-21T21:33:57.922Z,8.80
2018-03-21T21:36:26.161Z,9.07
2018-03-21T21:38:55.242Z,8.70
2018-03-21T21:41:23.518Z,10.00
2018-03-21T21:43:52.609Z,9.90
2018-03-21T21:46:21.172Z,9.40
2018-03-21T21:48:49.420Z,10.20
2018-03-21T21:51:17.768Z,10.63
2018-03-21T21:53:45.998Z,10.40
2018-03-21T21:56:14.317Z,10.17
2018-03-21T21:58:43.523Z,9.20
2018-03-21T22:01:12.547Z,9.87
2018-03-21T22:03:40.773Z,8.90
2018-03-21T22:06:10.065Z,8.23
2018-03-21T22:08:38.323Z,9.93
2018-03-21T22:11:06.721Z,10.63
2018-03-21T22:13:34.963Z,8.77
2018-03-21T22:16:03.385Z,10.53
2018-03-21T22:18:31.905Z,10.10
2018-03-21T22:21:00.293Z,9.60
2018-03-21T22:23:28.561Z,9.40
2018-03-21T22:25:56.825Z,10.30
2018-03-21T22:28:25.085Z,9.57
2018-03-21T22:30:54.121Z,9.33
2018-03-21T22:33:22.543Z,9.77
2018-03-21T22:35:50.969Z,10.30
2018-03-21T22:38:19.271Z,12.37
2018-03-21T22:40:47.576Z,10.90
2018-03-21T22:43:15.849Z,10.20
2018-03-21T22:45:44.412Z,10.03
2018-03-21T22:48:13.478Z,10.93
2018-03-21T22:50:41.702Z,10.93
2018-03-21T22:53:10.727Z,10.03
2018-03-21T22:55:39.721Z,10.00
2018-03-21T22:58:08.689Z,11.27
2018-03-21T23:00:37.717Z,11.67
2018-03-21T23:03:05.998Z,10.07
2018-03-21T23:05:36.446Z,11.40
2018-03-21T23:08:04.671Z,11.20
2018-03-21T23:10:33.712Z,12.00
2018-03-21T23:13:02.677Z,10.50
2018-03-21T23:15:30.934Z,11.67
2018-03-21T23:17:59.953Z,12.10
2018-03-21T23:20:28.193Z,12.70
2018-03-21T23:22:56.470Z,11.47
2018-03-21T23:25:24.712Z,11.47
2018-03-21T23:27:52.961Z,11.13
2018-03-21T23:30:21.230Z,13.30
2018-03-21T23:32:49.489Z,13.00
2018-03-21T23:35:18.496Z,12.27
2018-03-21T23:37:46.767Z,13.00
2018-03-21T23:40:15.215Z,12.93
2018-03-21T23:42:43.492Z,12.00
2018-03-21T23:45:11.779Z,13.87
2018-03-21T23:47:40.281Z,12.30
2018-03-21T23:50:08.754Z,13.67
2018-03-21T23:52:37.417Z,13.93
2018-03-21T23:55:05.645Z,13.73
2018-03-21T23:57:33.978Z,13.90
